Time;durP1;ratioP1;P1;durP2;ratioP2;P2;SDS_P1;SDS_P2;PMS_P1;PMS_P2;Temp;Humidity;BMP_temperature;BMP_pressure;BME280_temperature;BME280_humidity;BME280_pressure;Samples;Min_cycle;Max_cycle;Signal;HPM_P1;HPM_P2
2021/04/20 00:02:19;;;;;;;92.13;40.25;;;12.80;59.30;;;;;;5017527;28;20201;-64
2021/04/20 00:04:45;;;;;;;82.95;38.65;;;12.80;59.30;;;;;;5020379;28;20041;-64
2021/04/20 00:07:10;;;;;;;84.10;39.13;;;12.80;59.20;;;;;;5020047;28;20402;-64
2021/04/20 00:09:36;;;;;;;76.47;36.65;;;12.70;59.20;;;;;;5028793;28;20215;-64
2021/04/20 00:12:01;;;;;;;75.15;34.60;;;12.70;59.10;;;;;;5025138;28;20041;-64
2021/04/20 00:14:27;;;;;;;57.80;31.05;;;12.60;58.90;;;;;;5025130;28;20077;-64
2021/04/20 00:16:53;;;;;;;67.93;34.17;;;12.50;58.80;;;;;;5027172;28;20048;-64
2021/04/20 00:19:20;;;;;;;68.60;33.78;;;12.50;58.80;;;;;;5028646;28;20032;-64
2021/04/20 00:21:46;;;;;;;74.60;34.60;;;12.40;58.80;;;;;;5028959;28;20127;-64
2021/04/20 00:24:16;;;;;;;74.55;35.60;;;12.30;58.80;;;;;;5018199;28;20624;-64
2021/04/20 00:26:46;;;;;;;74.05;35.15;;;12.30;58.90;;;;;;5017596;28;20045;-64
2021/04/20 00:29:12;;;;;;;82.40;37.08;;;12.20;58.90;;;;;;5016876;28;20033;-64
2021/04/20 00:31:40;;;;;;;89.07;39.92;;;12.20;59.00;;;;;;5019101;28;20036;-64
2021/04/20 00:34:05;;;;;;;97.97;41.58;;;12.10;59.10;;;;;;5023506;28;20043;-64
2021/04/20 00:36:31;;;;;;;91.25;40.97;;;12.10;59.30;;;;;;5031188;28;20150;-64
2021/04/20 00:38:59;;;;;;;93.18;39.15;;;12.10;59.40;;;;;;5028496;28;20799;-64
2021/04/20 00:41:27;;;;;;;86.90;38.75;;;12.00;59.50;;;;;;5032105;28;20033;-64
2021/04/20 00:43:55;;;;;;;90.30;39.03;;;12.00;59.60;;;;;;5028743;28;20044;-64
2021/04/20 00:46:23;;;;;;;84.38;38.42;;;12.00;59.70;;;;;;5032203;28;20048;-64
2021/04/20 00:48:48;;;;;;;87.57;39.28;;;12.00;59.70;;;;;;5021364;28;20040;-64
2021/04/20 00:51:15;;;;;;;86.38;38.67;;;12.00;59.70;;;;;;5034923;28;20086;-64
2021/04/20 00:53:43;;;;;;;84.50;37.47;;;12.00;59.90;;;;;;5027649;28;20037;-64
2021/04/20 00:56:09;;;;;;;83.93;37.55;;;12.00;60.00;;;;;;5032053;28;20391;-64
2021/04/20 00:58:35;;;;;;;77.40;37.45;;;12.00;59.90;;;;;;5029181;28;20098;-64
2021/04/20 01:01:01;;;;;;;76.57;35.15;;;12.00;60.00;;;;;;5028594;28;20376;-64
2021/04/20 01:03:30;;;;;;;76.50;33.83;;;12.00;60.00;;;;;;5025376;28;20052;-64
2021/04/20 01:05:56;;;;;;;71.05;32.55;;;12.00;60.10;;;;;;5023955;28;20533;-64
2021/04/20 01:08:24;;;;;;;70.05;32.50;;;12.00;60.10;;;;;;5022021;28;20040;-64
2021/04/20 01:10:57;;;;;;;62.70;29.90;;;11.90;59.90;;;;;;5030929;28;20505;-64
2021/04/20 01:13:25;;;;;;;62.90;30.85;;;12.00;59.90;;;;;;5024035;28;20041;-64
2021/04/20 01:15:52;;;;;;;59.35;28.08;;;11.90;59.80;;;;;;5026931;28;20052;-64
2021/04/20 01:18:24;;;;;;;48.97;26.88;;;11.90;59.70;;;;;;5028391;28;20467;-64
2021/04/20 01:20:55;;;;;;;52.03;26.50;;;11.90;59.60;;;;;;5027142;28;20036;-64
2021/04/20 01:23:45;;;;;;;46.10;24.45;;;11.90;59.50;;;;;;5023658;28;20067;-64
2021/04/20 01:26:11;;;;;;;53.53;25.20;;;11.80;59.40;;;;;;5029009;28;20036;-64
2021/04/20 01:28:37;;;;;;;48.50;23.65;;;11.80;59.30;;;;;;5023336;28;20601;-64
2021/04/20 01:31:07;;;;;;;45.35;23.15;;;11.70;59.30;;;;;;5030090;28;20048;-64
2021/04/20 01:33:36;;;;;;;42.78;22.08;;;11.70;59.20;;;;;;5028364;28;20117;-64
2021/04/20 01:36:02;;;;;;;47.85;24.88;;;11.60;59.20;;;;;;5029630;28;20114;-64
2021/04/20 01:38:31;;;;;;;47.45;23.95;;;11.60;59.20;;;;;;5030252;28;20041;-64
2021/04/20 01:41:00;;;;;;;39.60;22.50;;;11.50;59.20;;;;;;5025269;28;20112;-64
2021/04/20 01:43:34;;;;;;;44.05;21.77;;;11.50;59.30;;;;;;5049691;22;20122;-64
2021/04/20 01:45:59;;;;;;;50.67;23.05;;;11.40;59.30;;;;;;5040449;28;20098;-64
2021/04/20 01:48:27;;;;;;;39.00;22.40;;;11.40;59.20;;;;;;5023628;28;20482;-63
2021/04/20 01:50:53;;;;;;;41.80;22.60;;;11.40;59.20;;;;;;5022823;28;20593;-64
2021/04/20 01:53:21;;;;;;;43.38;22.40;;;11.40;59.20;;;;;;5022937;28;20037;-66
2021/04/20 01:55:48;;;;;;;43.60;22.25;;;11.40;59.10;;;;;;5032460;28;20079;-66
2021/04/20 01:58:17;;;;;;;38.70;22.00;;;11.30;58.80;;;;;;5028137;28;20037;-66
2021/04/20 02:00:44;;;;;;;41.63;21.90;;;11.20;58.70;;;;;;5027163;28;20037;-67
2021/04/20 02:03:09;;;;;;;45.38;22.35;;;11.20;58.70;;;;;;5017104;28;20084;-66
2021/04/20 02:05:38;;;;;;;41.92;21.45;;;11.10;58.70;;;;;;5018245;28;20033;-65
2021/04/20 02:08:05;;;;;;;46.60;23.63;;;11.10;58.70;;;;;;5014931;28;20049;-66
2021/04/20 02:10:31;;;;;;;46.83;23.83;;;11.00;58.80;;;;;;5012285;28;20033;-66
2021/04/20 02:12:59;;;;;;;46.22;22.90;;;11.00;59.00;;;;;;5019694;28;20076;-66
2021/04/20 02:15:27;;;;;;;40.05;21.92;;;11.00;59.00;;;;;;5029411;28;20033;-66
2021/04/20 02:17:56;;;;;;;40.25;21.98;;;10.90;59.50;;;;;;5033397;28;20144;-66
2021/04/20 02:20:24;;;;;;;40.95;22.45;;;10.90;58.90;;;;;;5007557;28;20041;-65
2021/04/20 02:22:56;;;;;;;49.15;24.25;;;10.90;58.90;;;;;;5025311;28;20091;-65
2021/04/20 02:25:23;;;;;;;40.75;22.33;;;10.90;58.90;;;;;;5029561;28;20036;-66
2021/04/20 02:27:55;;;;;;;39.53;22.08;;;10.80;58.90;;;;;;5045689;28;20054;-66
2021/04/20 02:30:22;;;;;;;39.88;22.02;;;10.90;59.10;;;;;;5007433;28;20049;-66
2021/04/20 02:32:48;;;;;;;43.55;22.25;;;10.80;58.90;;;;;;5008495;28;21402;-66
2021/04/20 02:35:16;;;;;;;43.42;21.77;;;10.80;58.90;;;;;;5029893;28;20492;-66
2021/04/20 02:37:45;;;;;;;38.65;20.30;;;10.70;58.80;;;;;;5009838;28;20045;-66
2021/04/20 02:40:22;;;;;;;34.13;19.65;;;10.70;58.80;;;;;;5004416;28;20589;-65
2021/04/20 02:42:51;;;;;;;35.90;19.77;;;10.60;58.70;;;;;;5024118;28;20123;-65
2021/04/20 02:45:19;;;;;;;38.42;20.25;;;10.60;58.70;;;;;;5027086;28;20033;-65
2021/04/20 02:47:47;;;;;;;34.30;20.33;;;10.60;58.60;;;;;;5027932;28;20045;-65
2021/04/20 02:50:17;;;;;;;34.13;20.38;;;10.50;58.60;;;;;;5019793;28;20037;-65
2021/04/20 02:52:49;;;;;;;38.20;19.67;;;10.40;58.50;;;;;;5030295;28;20040;-66
2021/04/20 02:55:15;;;;;;;39.03;20.77;;;10.40;58.40;;;;;;5020690;28;20037;-66
2021/04/20 02:57:49;;;;;;;40.15;21.08;;;10.30;58.70;;;;;;5010138;28;20052;-66
2021/04/20 03:00:21;;;;;;;39.50;21.92;;;10.30;58.60;;;;;;5004419;28;20041;-66
2021/04/20 03:02:53;;;;;;;39.13;20.92;;;10.20;58.50;;;;;;5016751;28;20127;-65
2021/04/20 03:05:22;;;;;;;44.22;21.35;;;10.20;58.60;;;;;;5011467;28;20033;-65
2021/04/20 03:07:50;;;;;;;41.10;21.00;;;10.10;58.50;;;;;;5003771;28;20098;-65
2021/04/20 03:10:20;;;;;;;39.78;21.33;;;10.10;58.50;;;;;;5037385;28;20566;-65
2021/04/20 03:12:48;;;;;;;34.85;21.08;;;10.00;58.50;;;;;;5003049;28;20060;-65
2021/04/20 03:15:17;;;;;;;39.92;20.85;;;10.00;58.60;;;;;;5013019;28;20038;-65
2021/04/20 03:17:48;;;;;;;36.00;19.98;;;9.90;58.60;;;;;;5015086;28;20083;-66
2021/04/20 03:20:21;;;;;;;41.45;21.58;;;9.90;58.70;;;;;;5011567;28;20047;-65
2021/04/20 03:22:49;;;;;;;35.03;20.65;;;9.90;58.80;;;;;;5027167;28;20045;-64
2021/04/20 03:25:30;;;;;;;41.25;20.02;;;9.90;58.90;;;;;;5039146;28;20086;-67
2021/04/20 03:27:57;;;;;;;44.33;20.80;;;9.90;59.00;;;;;;5034120;28;20168;-66
2021/04/20 03:30:30;;;;;;;38.33;20.45;;;9.90;58.90;;;;;;5026039;28;20136;-65
2021/04/20 03:33:02;;;;;;;36.05;19.50;;;9.80;58.80;;;;;;5020377;28;20921;-65
2021/04/20 03:35:34;;;;;;;40.28;19.77;;;9.80;58.80;;;;;;5031233;28;20055;-65
2021/04/20 03:38:17;;;;;;;37.85;19.13;;;9.80;58.80;;;;;;5024905;28;20048;-65
2021/04/20 03:40:52;;;;;;;32.35;18.33;;;9.70;58.60;;;;;;5026469;28;20056;-66
2021/04/20 03:43:20;;;;;;;36.08;19.63;;;9.70;58.50;;;;;;5027713;28;20402;-67
2021/04/20 03:45:54;;;;;;;34.13;18.52;;;9.60;58.40;;;;;;5018693;28;20056;-66
2021/04/20 03:48:30;;;;;;;41.40;19.77;;;9.50;58.50;;;;;;5022953;28;20033;-66
2021/04/20 03:50:59;;;;;;;28.55;17.83;;;9.50;58.50;;;;;;5016713;28;20044;-66
2021/04/20 03:53:30;;;;;;;36.17;18.70;;;9.40;58.50;;;;;;5012823;28;20040;-66
2021/04/20 03:55:57;;;;;;;38.92;20.08;;;9.40;58.50;;;;;;5029860;28;20148;-66
2021/04/20 03:58:24;;;;;;;36.45;19.40;;;9.30;58.60;;;;;;5027859;28;20037;-66
2021/04/20 04:00:52;;;;;;;40.65;18.85;;;9.30;58.60;;;;;;5029687;28;20048;-67
2021/04/20 04:03:22;;;;;;;33.63;18.08;;;9.30;58.60;;;;;;5022852;28;20032;-66
2021/04/20 04:05:49;;;;;;;35.67;18.38;;;9.20;58.70;;;;;;5032481;28;20041;-66
2021/04/20 04:08:17;;;;;;;31.55;18.33;;;9.20;58.70;;;;;;5031797;28;20037;-67
2021/04/20 04:10:44;;;;;;;45.85;18.63;;;9.20;58.80;;;;;;5035121;28;20487;-66
2021/04/20 04:13:15;;;;;;;35.20;18.20;;;9.10;58.70;;;;;;5032968;28;20501;-65
2021/04/20 04:15:43;;;;;;;32.42;17.73;;;9.10;58.80;;;;;;5033526;28;20120;-67
2021/04/20 04:18:16;;;;;;;41.15;18.50;;;9.10;58.70;;;;;;5030032;28;23863;-66
2021/04/20 04:20:49;;;;;;;29.75;17.75;;;9.10;58.80;;;;;;5035247;28;20091;-66
2021/04/20 04:23:24;;;;;;;30.65;17.30;;;9.10;58.80;;;;;;5022535;28;20502;-64
2021/04/20 04:26:09;;;;;;;31.67;16.98;;;9.10;58.80;;;;;;5025663;28;20032;-66
2021/04/20 04:28:42;;;;;;;31.63;15.98;;;9.00;58.70;;;;;;5010372;28;20410;-65
2021/04/20 04:31:11;;;;;;;33.53;18.00;;;9.00;58.80;;;;;;5019450;28;20060;-66
2021/04/20 04:33:42;;;;;;;33.10;18.10;;;9.00;58.90;;;;;;5020489;28;20049;-65
2021/04/20 04:36:11;;;;;;;33.72;16.27;;;9.00;59.10;;;;;;5028849;28;20067;-66
2021/04/20 04:38:41;;;;;;;33.83;16.38;;;9.00;59.30;;;;;;5025599;28;20605;-66
2021/04/20 04:41:10;;;;;;;39.95;16.70;;;9.00;59.30;;;;;;5028796;28;20341;-66
2021/04/20 04:43:41;;;;;;;29.50;15.70;;;9.00;59.40;;;;;;5028165;28;20032;-67
2021/04/20 04:46:14;;;;;;;29.30;15.25;;;9.00;59.40;;;;;;5032968;28;20196;-66
2021/04/20 04:48:45;;;;;;;26.30;14.57;;;9.10;59.30;;;;;;5024870;28;20126;-66
2021/04/20 04:51:12;;;;;;;23.98;14.00;;;9.10;59.40;;;;;;5027356;28;20048;-66
2021/04/20 04:53:41;;;;;;;25.40;14.15;;;9.20;59.40;;;;;;5028221;28;20561;-66
2021/04/20 04:56:11;;;;;;;29.98;15.38;;;9.20;59.30;;;;;;5031828;28;20047;-66
2021/04/20 04:58:37;;;;;;;34.83;14.95;;;9.20;59.30;;;;;;5026065;28;20043;-66
2021/04/20 05:01:11;;;;;;;30.80;15.18;;;9.30;59.50;;;;;;5033921;28;20029;-66
2021/04/20 05:03:37;;;;;;;28.38;15.05;;;9.30;59.60;;;;;;5033925;28;20112;-65
2021/04/20 05:06:06;;;;;;;28.95;15.55;;;9.40;59.70;;;;;;5030007;28;20052;-66
2021/04/20 05:08:31;;;;;;;29.88;15.25;;;9.50;59.90;;;;;;5032052;28;20033;-66
2021/04/20 05:11:03;;;;;;;27.63;14.27;;;9.60;59.90;;;;;;5030616;28;20033;-66
2021/04/20 05:13:30;;;;;;;24.88;14.50;;;9.70;59.70;;;;;;5015184;28;20052;-67
2021/04/20 05:16:02;;;;;;;24.20;13.50;;;9.80;59.80;;;;;;5004864;28;20038;-65
2021/04/20 05:18:28;;;;;;;24.85;13.60;;;10.00;59.90;;;;;;5033186;28;20557;-67
2021/04/20 05:20:56;;;;;;;20.85;12.45;;;10.20;60.00;;;;;;5024827;28;20041;-66
2021/04/20 05:23:21;;;;;;;23.73;12.73;;;10.40;59.50;;;;;;5028428;28;20043;-66
2021/04/20 05:25:53;;;;;;;20.67;10.90;;;10.50;59.00;;;;;;5028911;28;20037;-67
2021/04/20 05:28:20;;;;;;;24.10;12.43;;;10.50;58.80;;;;;;5027864;28;20045;-68
2021/04/20 05:30:46;;;;;;;27.17;11.55;;;10.60;58.80;;;;;;5017662;28;20037;-66
2021/04/20 05:33:15;;;;;;;22.17;12.00;;;10.60;58.70;;;;;;5024505;28;20048;-66
2021/04/20 05:35:46;;;;;;;19.23;10.52;;;10.80;58.60;;;;;;5020719;28;20038;-66
2021/04/20 05:38:14;;;;;;;17.10;11.07;;;10.90;58.30;;;;;;5012667;28;20131;-68
2021/04/20 05:40:41;;;;;;;31.33;11.38;;;11.00;58.00;;;;;;5014276;28;20437;-67
2021/04/20 05:43:10;;;;;;;23.75;10.88;;;11.10;58.10;;;;;;5026380;28;20057;-67
2021/04/20 05:45:37;;;;;;;21.20;9.77;;;11.60;58.10;;;;;;5018275;28;20045;-66
2021/04/20 05:48:03;;;;;;;19.80;10.50;;;12.00;57.90;;;;;;5007652;28;20081;-67
2021/04/20 05:50:34;;;;;;;21.10;8.90;;;12.60;57.20;;;;;;5017549;28;20502;-66
2021/04/20 05:53:00;;;;;;;25.15;10.68;;;12.90;56.00;;;;;;4988966;28;20063;-65
2021/04/20 05:55:27;;;;;;;21.83;10.18;;;13.00;54.80;;;;;;5021307;28;20522;-66
2021/04/20 05:57:55;;;;;;;17.73;9.48;;;13.00;54.00;;;;;;5016299;28;20040;-67
2021/04/20 06:00:25;;;;;;;20.08;9.82;;;12.90;53.60;;;;;;5020468;28;20168;-65
2021/04/20 06:02:55;;;;;;;18.90;10.25;;;12.80;53.70;;;;;;5007799;28;20508;-66
2021/04/20 06:05:25;;;;;;;26.10;11.10;;;12.90;54.40;;;;;;5015203;28;20057;-66
2021/04/20 06:07:59;;;;;;;19.38;9.30;;;13.20;54.80;;;;;;5010309;28;20049;-67
2021/04/20 06:10:26;;;;;;;19.70;10.35;;;13.50;53.90;;;;;;5008240;28;20041;-66
2021/04/20 06:12:54;;;;;;;24.70;10.93;;;13.50;52.90;;;;;;5005591;28;20037;-66
2021/04/20 06:15:24;;;;;;;18.50;10.35;;;13.40;52.50;;;;;;5015052;28;20122;-65
2021/04/20 06:17:57;;;;;;;23.83;10.45;;;13.40;52.80;;;;;;5018122;28;20091;-65
2021/04/20 06:20:25;;;;;;;22.27;10.63;;;13.70;52.80;;;;;;5009782;28;20044;-65
2021/04/20 06:22:54;;;;;;;18.55;10.07;;;13.90;52.70;;;;;;4998236;28;20087;-65
2021/04/20 06:25:26;;;;;;;21.17;11.07;;;14.20;52.20;;;;;;5006620;28;20037;-66
2021/04/20 06:27:52;;;;;;;28.50;11.10;;;14.30;51.40;;;;;;5012525;28;20111;-67
2021/04/20 06:30:21;;;;;;;21.63;11.55;;;14.30;51.40;;;;;;5021514;28;20045;-66
2021/04/20 06:32:49;;;;;;;25.70;12.07;;;14.40;51.00;;;;;;5010228;28;20037;-65
2021/04/20 06:35:19;;;;;;;22.23;12.38;;;14.30;50.70;;;;;;5001144;28;20029;-66
2021/04/20 06:37:49;;;;;;;20.63;10.77;;;14.10;50.60;;;;;;5009104;28;21733;-66
2021/04/20 06:40:25;;;;;;;24.63;11.98;;;13.90;50.80;;;;;;5008115;28;20187;-66
2021/04/20 06:43:00;;;;;;;23.75;12.10;;;13.80;50.80;;;;;;5007088;28;20071;-65
2021/04/20 06:45:32;;;;;;;22.23;11.15;;;13.70;51.50;;;;;;5007622;28;20052;-67
2021/04/20 06:48:02;;;;;;;21.48;11.32;;;13.70;51.20;;;;;;5003713;28;20037;-65
2021/04/20 06:50:31;;;;;;;26.00;13.40;;;13.60;51.30;;;;;;5013962;28;20281;-66
2021/04/20 06:53:07;;;;;;;22.80;12.13;;;13.70;51.50;;;;;;5005829;28;20489;-65
2021/04/20 06:56:01;;;;;;;19.70;12.20;;;13.70;51.50;;;;;;4999917;28;21241;-67
2021/04/20 06:58:47;;;;;;;25.52;12.30;;;13.80;51.80;;;;;;5017100;28;20633;-67
2021/04/20 07:01:18;;;;;;;20.08;11.43;;;14.20;51.70;;;;;;5012756;28;20037;-66
2021/04/20 07:04:09;;;;;;;25.98;11.45;;;14.70;51.40;;;;;;5010863;28;20033;-67
2021/04/20 07:06:42;;;;;;;19.27;10.90;;;15.40;50.70;;;;;;5023476;28;20025;-67
2021/04/20 07:09:21;;;;;;;21.35;10.50;;;15.90;48.90;;;;;;5021840;28;20041;-66
2021/04/20 07:11:51;;;;;;;23.73;11.90;;;16.20;48.00;;;;;;5012222;28;20502;-67
2021/04/20 07:14:40;;;;;;;21.35;10.75;;;16.50;47.20;;;;;;5011672;28;20029;-67
2021/04/20 07:17:23;;;;;;;18.42;9.65;;;16.60;47.00;;;;;;5004610;28;20037;-66
2021/04/20 07:20:28;;;;;;;15.77;10.13;;;16.90;47.00;;;;;;5018799;28;20776;-66
2021/04/20 07:23:08;;;;;;;19.33;9.55;;;17.90;46.70;;;;;;5019840;28;20122;-66
2021/04/20 07:25:52;;;;;;;21.08;9.23;;;19.30;44.40;;;;;;5015558;28;20528;-67
2021/04/20 07:28:36;;;;;;;16.50;8.48;;;20.50;41.80;;;;;;5012127;28;20353;-67
2021/04/20 07:31:19;;;;;;;14.52;7.93;;;22.00;39.60;;;;;;4991355;28;20043;-66
2021/04/20 07:34:32;;;;;;;14.50;7.40;;;23.40;37.30;;;;;;5014466;28;20032;-68
2021/04/20 07:37:06;;;;;;;13.88;8.05;;;;;;;;;;4986846;28;20507;-68
2021/04/20 07:39:47;;;;;;;13.68;7.55;;;;;;;;;;5012043;28;20052;-67
2021/04/20 07:42:19;;;;;;;12.38;7.90;;;;;;;;;;5029175;28;20051;-65
2021/04/20 07:44:51;;;;;;;14.98;7.80;;;;;;;;;;5010406;28;20072;-65
2021/04/20 07:47:18;;;;;;;13.63;7.43;;;;;;;;;;5010325;28;20056;-66
2021/04/20 07:50:03;;;;;;;12.80;6.60;;;;;;;;;;5021619;22;20060;-65
2021/04/20 07:52:48;;;;;;;12.70;6.78;;;;;;;;;;4988895;28;20436;-66
2021/04/20 07:55:20;;;;;;;13.48;6.57;;;24.90;34.10;;;;;;4970518;28;20049;-65
2021/04/20 07:57:59;;;;;;;16.77;7.28;;;31.10;24.20;;;;;;4998312;28;20255;-65
2021/04/20 08:00:31;;;;;;;12.27;6.45;;;;;;;;;;4985265;28;20041;-65
2021/04/20 08:03:22;;;;;;;11.35;6.18;;;31.50;23.90;;;;;;4985011;28;20068;-65
2021/04/20 08:06:07;;;;;;;14.00;6.93;;;32.20;22.70;;;;;;5003966;28;20041;-65
2021/04/20 08:08:42;;;;;;;15.00;6.90;;;;;;;;;;4993479;28;20500;-66
2021/04/20 08:11:19;;;;;;;11.65;6.40;;;32.50;22.10;;;;;;4980353;28;20044;-65
2021/04/20 08:13:50;;;;;;;14.75;6.18;;;33.00;21.40;;;;;;4998593;28;20618;-65
2021/04/20 08:16:38;;;;;;;10.73;6.35;;;33.60;21.50;;;;;;4997160;28;20049;-65
2021/04/20 08:19:14;;;;;;;12.15;6.32;;;34.00;20.80;;;;;;4992537;28;20361;-65
2021/04/20 08:21:44;;;;;;;13.18;6.53;;;34.20;20.30;;;;;;4985840;28;20048;-66
2021/04/20 08:24:21;;;;;;;12.82;7.05;;;34.30;19.90;;;;;;4992833;28;20041;-66
2021/04/20 08:26:53;;;;;;;12.55;6.22;;;34.50;19.80;;;;;;4996555;28;20406;-66
2021/04/20 08:29:28;;;;;;;12.10;6.65;;;34.70;19.20;;;;;;4995429;28;20415;-66
2021/04/20 08:31:57;;;;;;;10.13;5.60;;;34.50;19.10;;;;;;4981198;28;20829;-65
2021/04/20 08:34:34;;;;;;;11.52;6.05;;;34.30;20.10;;;;;;4989539;28;20049;-65
2021/04/20 08:37:10;;;;;;;11.50;5.35;;;34.30;19.40;;;;;;4993645;28;20044;-65
2021/04/20 08:39:38;;;;;;;11.13;4.78;;;;;;;;;;4986860;28;20566;-66
2021/04/20 08:42:18;;;;;;;11.32;4.57;;;34.80;19.60;;;;;;4983675;28;20267;-65
2021/04/20 08:45:01;;;;;;;8.55;5.30;;;35.30;18.10;;;;;;4969524;28;20038;-65
2021/04/20 08:47:47;;;;;;;11.55;4.82;;;;;;;;;;4972317;28;20065;-65
2021/04/20 08:50:15;;;;;;;10.57;5.05;;;;;;;;;;4973841;28;20236;-66
2021/04/20 08:52:49;;;;;;;7.75;5.00;;;35.20;18.40;;;;;;4980976;28;20042;-65
2021/04/20 08:55:36;;;;;;;10.75;5.65;;;;;;;;;;4978854;28;20045;-66
2021/04/20 08:58:20;;;;;;;9.77;5.32;;;;;;;;;;5002316;28;20593;-65
2021/04/20 09:01:08;;;;;;;7.32;5.15;;;36.10;17.60;;;;;;5005134;28;20037;-66
2021/04/20 09:03:59;;;;;;;11.70;5.10;;;36.00;16.80;;;;;;4986852;28;20034;-66
2021/04/20 09:06:34;;;;;;;8.95;5.22;;;36.00;17.50;;;;;;5000079;28;20129;-65
2021/04/20 09:09:12;;;;;;;17.30;5.28;;;36.10;17.50;;;;;;4997445;28;20037;-65
2021/04/20 09:11:47;;;;;;;7.47;4.90;;;36.10;16.90;;;;;;4992812;28;20068;-66
2021/04/20 09:14:27;;;;;;;13.20;5.40;;;;;;;;;;4986500;28;20522;-66
2021/04/20 09:17:02;;;;;;;8.75;5.28;;;36.30;17.10;;;;;;5010289;28;20045;-65
2021/04/20 09:19:41;;;;;;;8.93;4.22;;;37.20;17.10;;;;;;5019551;28;20498;-66
2021/04/20 09:22:09;;;;;;;9.80;4.32;;;37.30;16.40;;;;;;4997626;28;20041;-65
2021/04/20 09:25:07;;;;;;;8.13;4.38;;;37.10;16.30;;;;;;4990226;28;20228;-65
2021/04/20 09:27:44;;;;;;;13.00;5.30;;;;;;;;;;4987720;28;20702;-66
2021/04/20 09:30:14;;;;;;;8.23;4.55;;;;;;;;;;4990981;28;20088;-66
2021/04/20 09:32:53;;;;;;;7.35;4.28;;;;;;;;;;4991323;28;20041;-66
2021/04/20 09:35:21;;;;;;;6.82;4.47;;;;;;;;;;4994775;28;20045;-65
2021/04/20 09:37:50;;;;;;;8.70;4.00;;;;;;;;;;4999424;28;20048;-65
2021/04/20 09:40:19;;;;;;;7.68;4.30;;;;;;;;;;4999404;28;20161;-65
2021/04/20 09:42:53;;;;;;;7.85;4.30;;;36.90;16.60;;;;;;4986481;28;20492;-66
2021/04/20 09:45:31;;;;;;;7.53;4.22;;;;;;;;;;4999797;28;20626;-66
2021/04/20 09:48:09;;;;;;;6.75;4.05;;;;;;;;;;5001118;28;20037;-66
2021/04/20 09:50:41;;;;;;;9.75;4.88;;;;;;;;;;5004061;28;20131;-65
2021/04/20 09:53:35;;;;;;;12.93;4.25;;;37.80;16.20;;;;;;4993845;28;20068;-65
2021/04/20 09:56:10;;;;;;;5.93;3.85;;;;;;;;;;4985040;28;20038;-65
2021/04/20 09:58:41;;;;;;;6.72;4.32;;;37.80;15.00;;;;;;4992828;28;20059;-65
2021/04/20 10:01:26;;;;;;;10.55;4.90;;;;;;;;;;4982627;28;20042;-66
2021/04/20 10:04:05;;;;;;;6.15;4.18;;;;;;;;;;4981989;28;20037;-66
2021/04/20 10:06:59;;;;;;;9.38;4.47;;;;;;;;;;4988613;28;20053;-65
2021/04/20 10:09:37;;;;;;;5.82;3.80;;;;;;;;;;4983935;28;20034;-65
2021/04/20 10:12:12;;;;;;;7.07;3.85;;;;;;;;;;4982767;28;20104;-65
2021/04/20 10:14:48;;;;;;;5.80;3.85;;;;;;;;;;4990139;28;20415;-65
2021/04/20 10:17:16;;;;;;;7.85;3.95;;;;;;;;;;4996516;28;20360;-66
2021/04/20 10:19:48;;;;;;;9.32;4.13;;;;;;;;;;5002382;28;20127;-65
2021/04/20 10:22:27;;;;;;;7.60;3.72;;;;;;;;;;4991147;28;20136;-65
2021/04/20 10:25:13;;;;;;;6.93;4.10;;;;;;;;;;5003269;28;20586;-66
2021/04/20 10:27:39;;;;;;;8.65;3.80;;;;;;;;;;5005465;28;20087;-66
2021/04/20 10:30:15;;;;;;;7.43;3.92;;;;;;;;;;5000849;28;20467;-65
2021/04/20 10:32:47;;;;;;;9.10;4.60;;;;;;;;;;4988832;28;20473;-66
2021/04/20 10:35:17;;;;;;;7.95;4.00;;;;;;;;;;4992593;28;20057;-65
2021/04/20 10:37:44;;;;;;;8.63;3.97;;;;;;;;;;5000871;28;20117;-66
2021/04/20 10:40:14;;;;;;;6.85;4.10;;;;;;;;;;4996824;28;20042;-65
2021/04/20 10:42:47;;;;;;;8.80;4.22;;;;;;;;;;4993465;28;20152;-66
2021/04/20 10:45:15;;;;;;;10.40;3.95;;;;;;;;;;4992842;28;21409;-65
2021/04/20 10:47:45;;;;;;;5.72;3.65;;;;;;;;;;4985947;28;20412;-66
2021/04/20 10:50:19;;;;;;;7.15;4.32;;;;;;;;;;4977989;28;20111;-65
2021/04/20 10:52:51;;;;;;;10.32;3.97;;;;;;;;;;4993465;28;20065;-65
2021/04/20 10:55:17;;;;;;;7.97;3.88;;;;;;;;;;4992068;28;20422;-65
2021/04/20 10:57:48;;;;;;;8.45;3.90;;;37.80;15.50;;;;;;4993532;28;20133;-66
2021/04/20 11:00:16;;;;;;;9.18;4.78;;;37.00;14.70;;;;;;4990076;28;20543;-65
2021/04/20 11:02:50;;;;;;;5.80;4.20;;;;;;;;;;5011650;28;20319;-64
2021/04/20 11:05:20;;;;;;;5.15;3.88;;;;;;;;;;5020834;28;20187;-65
2021/04/20 11:07:50;;;;;;;8.05;4.00;;;36.50;15.10;;;;;;5032117;28;20041;-65
2021/04/20 11:10:21;;;;;;;7.95;4.60;;;35.10;15.60;;;;;;5028969;28;20056;-66
2021/04/20 11:12:50;;;;;;;8.63;3.75;;;34.90;15.80;;;;;;5021825;28;21343;-65
2021/04/20 11:15:23;;;;;;;10.43;4.05;;;34.80;16.20;;;;;;5033451;28;20564;-65
2021/04/20 11:18:11;;;;;;;7.20;3.85;;;34.70;17.30;;;;;;5043087;28;20060;-65
2021/04/20 11:20:45;;;;;;;7.50;4.10;;;;;;;;;;5030478;28;20032;-65
2021/04/20 11:23:27;;;;;;;7.82;3.65;;;34.50;16.50;;;;;;5050648;28;20059;-65
2021/04/20 11:25:56;;;;;;;9.63;3.78;;;;;;;;;;5034921;28;21838;-65
2021/04/20 11:28:22;;;;;;;5.90;3.85;;;;;;;;;;5060975;28;20038;-64
2021/04/20 11:30:58;;;;;;;4.82;3.42;;;;;;;;;;5059698;28;20408;-65
2021/04/20 11:33:38;;;;;;;6.60;3.83;;;;;;;;;;5054766;28;21823;-65
2021/04/20 11:36:06;;;;;;;5.75;3.78;;;;;;;;;;5052820;28;20028;-64
2021/04/20 11:38:51;;;;;;;7.57;3.88;;;;;;;;;;5062008;28;20497;-64
2021/04/20 11:41:18;;;;;;;5.78;3.40;;;;;;;;;;5068085;28;20042;-65
2021/04/20 11:43:52;;;;;;;6.57;3.33;;;;;;;;;;5068078;28;20028;-65
2021/04/20 11:46:21;;;;;;;8.90;3.50;;;;;;;;;;5050067;28;20045;-64
2021/04/20 11:48:49;;;;;;;5.18;2.63;;;;;;;;;;5066789;28;20137;-65
2021/04/20 11:51:16;;;;;;;6.75;3.25;;;33.60;17.20;;;;;;5059519;28;20040;-65
2021/04/20 11:53:48;;;;;;;5.30;3.03;;;28.10;19.70;;;;;;5062152;28;20040;-64
2021/04/20 11:56:16;;;;;;;7.47;3.00;;;28.00;20.60;;;;;;5047040;28;20417;-65
2021/04/20 11:58:48;;;;;;;8.98;2.97;;;28.10;20.00;;;;;;5055827;28;20051;-64
2021/04/20 12:01:21;;;;;;;6.88;2.45;;;28.20;20.30;;;;;;5056525;28;20098;-65
2021/04/20 12:03:54;;;;;;;5.03;2.58;;;28.30;20.10;;;;;;5022139;28;20127;-64
2021/04/20 12:06:23;;;;;;;6.40;2.75;;;28.30;20.10;;;;;;5061149;28;20078;-65
2021/04/20 12:08:54;;;;;;;4.28;2.72;;;28.20;20.60;;;;;;5052025;28;20071;-65
2021/04/20 12:11:30;;;;;;;4.35;2.40;;;28.00;20.70;;;;;;5048285;28;20032;-65
2021/04/20 12:13:57;;;;;;;12.55;5.28;;;28.00;19.60;;;;;;5045831;28;20040;-65
2021/04/20 12:16:23;;;;;;;7.07;2.95;;;27.70;19.60;;;;;;5055486;28;20035;-65
2021/04/20 12:18:54;;;;;;;8.65;2.97;;;27.40;20.00;;;;;;5060383;28;20033;-64
2021/04/20 12:21:25;;;;;;;11.23;5.10;;;27.40;20.00;;;;;;5046224;28;20163;-65
2021/04/20 12:23:54;;;;;;;13.63;8.57;;;27.40;19.80;;;;;;5038843;28;21586;-65
2021/04/20 12:26:21;;;;;;;7.32;3.35;;;27.20;19.00;;;;;;5053838;28;20123;-65
2021/04/20 12:28:52;;;;;;;6.00;2.58;;;27.00;20.00;;;;;;5053125;28;20040;-65
2021/04/20 12:31:32;;;;;;;3.40;2.40;;;26.80;19.90;;;;;;5043351;28;20063;-64
2021/04/20 12:33:59;;;;;;;4.63;2.25;;;26.70;19.90;;;;;;5058488;28;20032;-65
2021/04/20 12:36:27;;;;;;;6.18;2.38;;;26.70;20.50;;;;;;5063897;28;20032;-65
2021/04/20 12:38:56;;;;;;;3.67;2.45;;;26.60;19.80;;;;;;5064887;28;20028;-65
2021/04/20 12:41:22;;;;;;;6.07;2.67;;;26.40;19.20;;;;;;5052864;28;20565;-65
2021/04/20 12:43:52;;;;;;;6.40;2.80;;;26.20;19.90;;;;;;5061351;28;20036;-64
2021/04/20 12:46:23;;;;;;;6.05;2.33;;;26.00;20.30;;;;;;5044679;28;20035;-65
2021/04/20 12:48:55;;;;;;;4.90;2.60;;;26.00;20.50;;;;;;5056254;28;20546;-65
2021/04/20 12:51:22;;;;;;;7.13;2.70;;;26.00;21.00;;;;;;5046145;28;20121;-65
2021/04/20 12:53:50;;;;;;;6.10;2.50;;;26.00;19.90;;;;;;5058526;28;20027;-65
2021/04/20 12:56:38;;;;;;;4.55;2.20;;;;;;;;;;5045042;28;20036;-65
2021/04/20 12:59:08;;;;;;;5.78;2.63;;;;;;;;;;5029166;28;20063;-65
2021/04/20 13:01:38;;;;;;;6.35;2.50;;;;;;;;;;5045854;28;20116;-64
2021/04/20 13:04:04;;;;;;;3.85;2.17;;;;;;;;;;5056357;28;21720;-64
2021/04/20 13:06:31;;;;;;;9.57;2.55;;;25.90;20.10;;;;;;5046433;28;20041;-64
2021/04/20 13:09:02;;;;;;;6.22;2.92;;;25.80;19.60;;;;;;5060047;28;20039;-65
2021/04/20 13:11:35;;;;;;;5.90;2.83;;;25.90;20.60;;;;;;5065741;28;20040;-65
2021/04/20 13:14:02;;;;;;;5.63;2.67;;;26.10;20.50;;;;;;5065673;28;20036;-64
2021/04/20 13:16:33;;;;;;;5.60;2.67;;;26.30;20.90;;;;;;5059443;28;20063;-65
2021/04/20 13:19:08;;;;;;;11.32;2.78;;;26.40;20.50;;;;;;5040621;28;20029;-65
2021/04/20 13:21:35;;;;;;;5.15;2.15;;;26.50;20.00;;;;;;5027628;28;20035;-64